createdAt,value
2022-09-12T00:01:06.640Z,12.10
2022-09-12T00:03:34.923Z,12.10
2022-09-12T00:06:03.133Z,12.10
2022-09-12T00:08:31.140Z,12.30
2022-09-12T00:10:59.401Z,12.10
2022-09-12T00:13:27.417Z,12.00
2022-09-12T00:15:55.365Z,11.90
2022-09-12T00:18:24.778Z,11.90
2022-09-12T00:20:52.795Z,12.00
2022-09-12T00:23:20.884Z,11.90
2022-09-12T00:25:50.133Z,11.90
2022-09-12T00:28:19.300Z,12.00
2022-09-12T00:30:49.229Z,12.10
2022-09-12T00:33:18.935Z,12.10
2022-09-12T00:35:50.387Z,12.00
2022-09-12T00:38:18.880Z,12.10
2022-09-12T00:40:47.200Z,12.10
2022-09-12T00:43:34.457Z,12.10
2022-09-12T00:46:06.570Z,11.90
2022-09-12T00:48:40.661Z,11.80
2022-09-12T00:51:10.667Z,11.80
2022-09-12T00:53:41.846Z,11.80
2022-09-12T00:56:10.542Z,11.80
2022-09-12T00:58:42.934Z,11.80
2022-09-12T01:01:11.027Z,12.00
2022-09-12T01:03:39.290Z,12.10
2022-09-12T01:06:14.076Z,11.90
2022-09-12T01:08:44.115Z,11.90
2022-09-12T01:11:14.413Z,11.90
2022-09-12T01:13:43.208Z,11.90
2022-09-12T01:16:11.312Z,12.10
2022-09-12T01:18:52.654Z,12.00
2022-09-12T01:21:35.424Z,11.80
2022-09-12T01:24:30.195Z,11.70
2022-09-12T01:27:37.689Z,11.70
2022-09-12T01:30:29.441Z,11.60
2022-09-12T01:33:34.116Z,11.50
2022-09-12T01:36:35.829Z,11.60
2022-09-12T01:39:06.725Z,11.60
2022-09-12T01:41:45.542Z,11.60
2022-09-12T01:44:22.775Z,11.60
2022-09-12T01:46:59.014Z,11.60
2022-09-12T01:49:30.573Z,11.80
2022-09-12T01:52:04.493Z,11.60
2022-09-12T01:54:38.209Z,11.60
2022-09-12T01:57:13.917Z,11.80
2022-09-12T01:59:48.348Z,11.70
2022-09-12T02:02:24.031Z,12.00
2022-09-12T02:04:58.464Z,12.00
2022-09-12T02:07:32.628Z,11.90
2022-09-12T02:10:07.242Z,11.90
2022-09-12T02:12:40.426Z,11.70
2022-09-12T02:15:10.740Z,11.50
2022-09-12T02:17:44.417Z,11.40
2022-09-12T02:20:43.984Z,11.50
2022-09-12T02:23:14.996Z,11.50
2022-09-12T02:25:46.817Z,11.40
2022-09-12T02:28:19.771Z,11.40
2022-09-12T02:30:56.824Z,11.40
2022-09-12T02:33:32.091Z,11.40
2022-09-12T02:36:11.141Z,11.40
2022-09-12T02:38:44.422Z,11.40
2022-09-12T02:41:14.914Z,11.30
2022-09-12T02:43:43.096Z,11.20
2022-09-12T02:46:18.321Z,11.50
2022-09-12T02:48:47.875Z,11.30
2022-09-12T02:51:20.303Z,11.40
2022-09-12T02:53:51.387Z,11.40
2022-09-12T02:56:25.947Z,11.40
2022-09-12T02:58:55.407Z,11.30
2022-09-12T03:01:35.194Z,11.20
2022-09-12T03:04:29.799Z,11.10
2022-09-12T03:07:12.355Z,11.40
2022-09-12T03:09:47.026Z,11.50
2022-09-12T03:12:30.253Z,11.50
2022-09-12T03:15:23.748Z,11.50
2022-09-12T03:18:07.385Z,11.50
2022-09-12T03:20:46.079Z,11.70
2022-09-12T03:23:25.507Z,11.90
2022-09-12T03:25:58.066Z,11.90
2022-09-12T03:28:26.798Z,12.00
2022-09-12T03:30:56.500Z,12.00
2022-09-12T03:33:26.488Z,12.00
2022-09-12T03:35:56.956Z,11.90
2022-09-12T03:38:25.008Z,11.60
2022-09-12T03:40:54.982Z,11.30
2022-09-12T03:43:23.174Z,11.30
2022-09-12T03:45:52.333Z,11.30
2022-09-12T03:48:20.490Z,11.40
2022-09-12T03:50:48.613Z,11.20
2022-09-12T03:53:17.962Z,11.20
2022-09-12T03:55:46.015Z,11.40
2022-09-12T03:58:13.970Z,11.30
2022-09-12T04:00:43.054Z,11.30
2022-09-12T04:03:11.212Z,11.30
2022-09-12T04:05:39.430Z,11.40
2022-09-12T04:08:07.502Z,11.60
2022-09-12T04:10:36.992Z,11.50
2022-09-12T04:13:05.002Z,11.30
2022-09-12T04:15:34.336Z,11.30
2022-09-12T04:18:05.705Z,11.60
2022-09-12T04:20:34.281Z,11.60
2022-09-12T04:23:02.363Z,11.40
2022-09-12T04:25:31.372Z,11.30
2022-09-12T04:28:00.733Z,11.50
2022-09-12T04:30:28.919Z,11.40
2022-09-12T04:32:56.956Z,11.30
2022-09-12T04:35:25.008Z,11.40
2022-09-12T04:37:53.088Z,11.30
2022-09-12T04:40:21.310Z,11.30
2022-09-12T04:42:49.283Z,11.30
2022-09-12T04:45:19.234Z,11.40
2022-09-12T04:47:47.372Z,11.40
2022-09-12T04:50:15.621Z,11.30
2022-09-12T04:52:43.704Z,11.10
2022-09-12T04:55:11.878Z,11.00
2022-09-12T04:57:39.959Z,11.00
2022-09-12T05:00:13.625Z,11.20
2022-09-12T05:02:43.556Z,11.40
2022-09-12T05:05:12.450Z,11.30
2022-09-12T05:07:40.442Z,11.00
2022-09-12T05:10:10.068Z,11.10
2022-09-12T05:12:38.067Z,11.20
2022-09-12T05:15:07.518Z,11.10
2022-09-12T05:17:35.498Z,11.10
2022-09-12T05:20:05.458Z,11.10
2022-09-12T05:22:33.450Z,11.10
2022-09-12T05:25:01.567Z,11.30
2022-09-12T05:27:29.549Z,11.10
2022-09-12T05:29:57.692Z,11.20
2022-09-12T05:32:25.771Z,11.40
2022-09-12T05:34:53.769Z,11.70
2022-09-12T05:37:23.216Z,11.70
2022-09-12T05:39:51.298Z,11.80
2022-09-12T05:42:19.329Z,12.00
2022-09-12T05:44:47.459Z,12.50
2022-09-12T05:47:16.889Z,12.80
2022-09-12T05:49:47.979Z,13.10
2022-09-12T05:52:16.306Z,13.00
2022-09-12T05:54:46.631Z,13.40
2022-09-12T05:57:14.669Z,13.70
2022-09-12T05:59:43.337Z,14.30
2022-09-12T06:02:12.981Z,13.90
2022-09-12T06:04:41.924Z,13.70
2022-09-12T06:07:10.300Z,13.80
2022-09-12T06:09:38.406Z,14.90
2022-09-12T06:12:08.657Z,17.30
2022-09-12T06:14:36.999Z,18.00
2022-09-12T06:17:05.457Z,17.50
2022-09-12T06:19:33.675Z,18.90
2022-09-12T06:22:01.786Z,20.60
2022-09-12T06:24:29.810Z,22.70
2022-09-12T06:26:57.845Z,23.80
2022-09-12T06:29:27.305Z,25.10
2022-09-12T06:31:55.383Z,23.50
2022-09-12T06:34:23.436Z,22.00
2022-09-12T06:36:51.882Z,21.70
2022-09-12T06:39:21.829Z,21.90
2022-09-12T06:41:50.649Z,22.10
2022-09-12T06:44:21.389Z,24.50
2022-09-12T06:46:53.621Z,25.90
2022-09-12T06:49:21.693Z,25.60
2022-09-12T06:51:49.831Z,25.20
2022-09-12T06:54:18.166Z,25.70
2022-09-12T06:56:46.330Z,24.70
2022-09-12T06:59:14.445Z,25.80
2022-09-12T07:01:42.814Z,25.00
2022-09-12T07:04:12.681Z,24.90
2022-09-12T07:06:42.111Z,25.00
2022-09-12T07:09:12.996Z,22.90
2022-09-12T07:11:43.150Z,21.40
2022-09-12T07:14:13.980Z,23.00
2022-09-12T07:16:42.391Z,25.60
2022-09-12T07:19:12.224Z,24.50
2022-09-12T07:21:40.951Z,24.30
2022-09-12T07:24:10.785Z,25.40
2022-09-12T07:26:40.467Z,24.50
2022-09-12T07:29:35.502Z,25.20
2022-09-12T07:31:58.759Z,25.70
2022-09-12T07:34:28.164Z,27.30
2022-09-12T07:36:56.152Z,27.60
2022-09-12T07:39:24.134Z,29.00
2022-09-12T07:41:52.109Z,25.90
2022-09-12T07:44:21.965Z,27.10
2022-09-12T07:46:50.744Z,26.00
2022-09-12T07:49:18.861Z,23.90
2022-09-12T07:51:48.506Z,24.60
2022-09-12T07:54:16.756Z,23.50
2022-09-12T07:56:45.851Z,22.80
2022-09-12T07:59:18.917Z,24.00
2022-09-12T08:01:58.156Z,23.80
2022-09-12T08:09:21.132Z,23.80
2022-09-12T08:11:49.452Z,24.60
2022-09-12T08:14:18.297Z,24.10
2022-09-12T08:16:46.333Z,24.00
2022-09-12T08:19:14.788Z,24.90
2022-09-12T08:21:42.859Z,26.00
2022-09-12T08:24:13.579Z,27.60
2022-09-12T08:26:43.153Z,27.30
2022-09-12T08:29:11.183Z,26.60
2022-09-12T08:31:41.274Z,27.60
2022-09-12T08:34:09.989Z,27.70
2022-09-12T08:36:38.044Z,26.50
2022-09-12T08:39:08.014Z,27.50
2022-09-12T08:41:40.780Z,27.20
2022-09-12T08:44:32.864Z,28.00
2022-09-12T08:47:16.448Z,27.70
2022-09-12T08:49:52.536Z,27.70
2022-09-12T08:52:24.558Z,28.60
2022-09-12T08:54:53.300Z,29.10
2022-09-12T08:57:21.508Z,27.10
2022-09-12T08:59:52.201Z,27.60
2022-09-12T09:02:56.084Z,27.40
2022-09-12T09:05:29.585Z,28.20
2022-09-12T09:08:17.435Z,28.20
2022-09-12T09:10:53.007Z,28.20
2022-09-12T09:13:50.305Z,28.80
2022-09-12T09:16:27.068Z,29.90
2022-09-12T09:18:58.450Z,29.50
2022-09-12T09:21:31.842Z,29.80
2022-09-12T09:24:05.850Z,30.60
2022-09-12T09:26:42.946Z,29.60
2022-09-12T09:29:18.675Z,29.20
2022-09-12T09:31:53.433Z,29.90
2022-09-12T09:34:22.927Z,30.70
2022-09-12T09:36:53.455Z,32.20
2022-09-12T09:39:35.501Z,32.20
2022-09-12T09:42:13.889Z,30.70
2022-09-12T09:44:42.143Z,30.10
2022-09-12T09:47:13.232Z,29.60
2022-09-12T09:49:41.887Z,29.40
2022-09-12T09:52:13.305Z,31.50
2022-09-12T09:54:47.504Z,30.80
2022-09-12T09:57:41.888Z,30.90
2022-09-12T10:00:24.114Z,32.20
2022-09-12T10:03:28.730Z,30.90
2022-09-12T10:06:01.659Z,31.00
2022-09-12T10:08:31.583Z,30.70
2022-09-12T10:11:02.948Z,31.00
2022-09-12T10:13:37.814Z,31.00
2022-09-12T10:16:08.504Z,30.60
2022-09-12T10:18:42.867Z,27.50
2022-09-12T10:21:19.397Z,29.80
2022-09-12T10:23:51.987Z,29.20
2022-09-12T10:26:21.685Z,31.10
2022-09-12T10:28:53.685Z,30.70
2022-09-12T10:31:29.457Z,29.50
2022-09-12T10:34:00.958Z,29.90
2022-09-12T10:36:39.392Z,31.40
2022-09-12T10:39:08.168Z,29.90
2022-09-12T10:41:39.709Z,28.40
2022-09-12T10:44:09.934Z,27.40
2022-09-12T10:46:38.121Z,28.60
2022-09-12T10:49:24.948Z,27.40
2022-09-12T10:51:57.327Z,28.20
2022-09-12T10:54:27.920Z,29.30
2022-09-12T10:57:12.376Z,28.30
2022-09-12T11:00:02.515Z,29.00
2022-09-12T11:02:36.351Z,29.90
2022-09-12T11:05:12.900Z,29.50
2022-09-12T11:07:47.206Z,30.00
2022-09-12T11:10:36.335Z,27.40
2022-09-12T11:13:20.749Z,29.30
2022-09-12T11:16:02.520Z,29.70
2022-09-12T11:19:04.982Z,30.70
2022-09-12T11:21:47.919Z,28.20
2022-09-12T11:24:48.159Z,27.90
2022-09-12T11:27:34.365Z,31.10
2022-09-12T11:30:06.378Z,31.00
2022-09-12T11:32:53.434Z,28.70
2022-09-12T11:35:25.863Z,27.80
2022-09-12T11:38:15.279Z,29.50
2022-09-12T11:40:49.867Z,30.60
2022-09-12T11:43:30.092Z,31.50
2022-09-12T11:46:03.389Z,31.20
2022-09-12T11:48:41.198Z,30.70
2022-09-12T11:51:19.261Z,30.50
2022-09-12T11:53:57.792Z,30.50
2022-09-12T11:56:27.427Z,29.80
2022-09-12T11:59:04.061Z,31.30
2022-09-12T12:01:42.006Z,30.00
2022-09-12T12:04:16.690Z,29.80
2022-09-12T12:06:52.114Z,29.40
2022-09-12T12:09:20.438Z,29.10
2022-09-12T12:11:56.023Z,28.50
2022-09-12T12:14:27.906Z,28.30
2022-09-12T12:16:56.013Z,27.50
2022-09-12T12:19:34.692Z,27.20
2022-09-12T12:22:17.554Z,27.80
2022-09-12T12:25:08.197Z,29.80
2022-09-12T12:27:59.169Z,29.70
2022-09-12T12:31:02.122Z,28.80
2022-09-12T12:33:53.725Z,29.60
2022-09-12T12:36:38.127Z,29.10
2022-09-12T12:39:49.291Z,28.60
2022-09-12T12:43:04.740Z,29.60
2022-09-12T12:46:12.576Z,29.70
2022-09-12T12:49:04.824Z,29.90
2022-09-12T12:51:57.763Z,28.40
2022-09-12T12:54:34.849Z,28.10
2022-09-12T12:57:18.415Z,28.10
2022-09-12T12:59:50.013Z,28.60
2022-09-12T13:02:23.644Z,27.40
2022-09-12T13:04:53.793Z,28.60
2022-09-12T13:07:33.729Z,30.10
2022-09-12T13:10:03.316Z,31.00
2022-09-12T13:12:35.135Z,30.40
2022-09-12T13:15:05.641Z,31.00
2022-09-12T13:17:37.003Z,31.10
2022-09-12T13:20:30.098Z,31.10
2022-09-12T13:22:59.514Z,30.50
2022-09-12T13:25:30.316Z,29.50
2022-09-12T13:28:00.702Z,29.20
2022-09-12T13:30:30.262Z,30.70
2022-09-12T13:32:59.978Z,29.70
2022-09-12T13:35:41.159Z,29.90
2022-09-12T13:38:17.623Z,28.70
2022-09-12T13:41:02.290Z,29.60
2022-09-12T13:43:41.046Z,29.10
2022-09-12T13:46:10.059Z,29.10
2022-09-12T13:48:40.518Z,29.10
2022-09-12T13:51:24.187Z,29.80
2022-09-12T13:53:56.150Z,30.30
2022-09-12T13:56:24.212Z,29.30
2022-09-12T13:58:55.512Z,30.30
2022-09-12T14:01:24.858Z,30.70
2022-09-12T14:04:12.081Z,31.10
2022-09-12T14:06:50.565Z,30.70
2022-09-12T14:09:26.009Z,31.20
2022-09-12T14:11:54.371Z,29.70
2022-09-12T14:14:31.257Z,29.20
2022-09-12T14:17:00.303Z,29.20
2022-09-12T14:19:29.172Z,29.60
2022-09-12T14:22:01.035Z,28.90
2022-09-12T14:24:31.031Z,28.50
2022-09-12T14:27:00.119Z,29.10
2022-09-12T14:29:28.965Z,29.40
2022-09-12T14:32:05.098Z,28.90
2022-09-12T14:34:33.262Z,28.30
2022-09-12T14:37:07.942Z,28.50
2022-09-12T14:39:42.122Z,27.70
2022-09-12T14:42:17.415Z,27.80
2022-09-12T14:44:56.229Z,27.70
2022-09-12T14:47:27.566Z,27.90
2022-09-12T14:49:56.587Z,27.40
2022-09-12T14:52:29.556Z,27.20
2022-09-12T14:54:59.603Z,27.30
2022-09-12T14:57:40.123Z,27.60
2022-09-12T15:00:24.287Z,27.30
2022-09-12T15:02:54.208Z,27.00
2022-09-12T15:05:28.464Z,27.10
2022-09-12T15:08:02.115Z,27.30
2022-09-12T15:10:33.051Z,27.00
2022-09-12T15:13:22.372Z,27.40
2022-09-12T15:15:52.743Z,27.70
2022-09-12T15:18:21.747Z,27.50
2022-09-12T15:20:52.974Z,27.40
2022-09-12T15:23:38.194Z,27.30
2022-09-12T15:26:06.863Z,27.00
2022-09-12T15:28:35.127Z,27.30
2022-09-12T15:31:08.661Z,27.50
2022-09-12T15:33:36.777Z,27.70
2022-09-12T15:36:12.963Z,27.20
2022-09-12T15:38:42.398Z,27.30
2022-09-12T15:41:16.942Z,27.20
2022-09-12T15:43:45.493Z,27.10
2022-09-12T15:46:15.386Z,27.00
2022-09-12T15:48:43.496Z,26.70
2022-09-12T15:51:15.540Z,26.70
2022-09-12T15:53:46.564Z,26.70
2022-09-12T15:56:15.339Z,26.80
2022-09-12T15:58:57.569Z,26.80
2022-09-12T16:01:27.422Z,26.60
2022-09-12T16:03:55.821Z,26.20
2022-09-12T16:06:24.170Z,25.90
2022-09-12T16:08:53.525Z,25.60
2022-09-12T16:11:23.538Z,25.60
2022-09-12T16:13:53.752Z,25.70
2022-09-12T16:16:22.027Z,26.00
2022-09-12T16:18:50.225Z,26.00
2022-09-12T16:21:18.462Z,25.90
2022-09-12T16:23:47.440Z,26.00
2022-09-12T16:26:17.708Z,26.10
2022-09-12T16:28:46.240Z,26.10
2022-09-12T16:31:15.252Z,25.90
2022-09-12T16:33:43.433Z,25.90
2022-09-12T16:36:14.308Z,25.90
2022-09-12T16:38:43.332Z,25.90
2022-09-12T16:41:12.701Z,25.90
2022-09-12T16:43:42.965Z,26.10
2022-09-12T16:46:12.631Z,26.20
2022-09-12T16:48:49.383Z,26.20
2022-09-12T16:51:21.757Z,26.30
2022-09-12T16:53:50.225Z,26.20
2022-09-12T16:56:18.633Z,26.10
2022-09-12T16:58:48.833Z,26.00
2022-09-12T17:01:19.305Z,25.90
2022-09-12T17:03:47.436Z,25.70
2022-09-12T17:06:16.970Z,25.60
2022-09-12T17:08:47.421Z,25.40
2022-09-12T17:11:17.398Z,25.40
2022-09-12T17:14:06.400Z,25.30
2022-09-12T17:16:36.388Z,25.20
2022-09-12T17:19:05.754Z,25.00
2022-09-12T17:21:34.264Z,24.90
2022-09-12T17:24:03.419Z,24.70
2022-09-12T17:26:31.578Z,24.70
2022-09-12T17:29:01.600Z,24.60
2022-09-12T17:31:29.818Z,24.50
2022-09-12T17:33:59.503Z,24.50
2022-09-12T17:36:29.135Z,24.00
2022-09-12T17:38:57.167Z,23.70
2022-09-12T17:41:27.855Z,23.40
2022-09-12T17:43:57.226Z,23.10
2022-09-12T17:46:32.887Z,22.70
2022-09-12T17:49:01.451Z,22.50
2022-09-12T17:51:31.580Z,22.40
2022-09-12T17:54:01.365Z,22.30
2022-09-12T17:56:31.477Z,22.10
2022-09-12T17:59:00.516Z,21.90
2022-09-12T18:01:48.438Z,21.70
2022-09-12T18:04:17.447Z,21.50
2022-09-12T18:06:48.141Z,21.40
2022-09-12T18:09:18.602Z,21.20
2022-09-12T18:11:48.155Z,21.10
2022-09-12T18:14:17.241Z,20.90
2022-09-12T18:16:47.413Z,20.80
2022-09-12T18:19:16.394Z,20.70
2022-09-12T18:21:44.714Z,20.50
2022-09-12T18:24:12.904Z,20.20
2022-09-12T18:26:42.759Z,20.00
2022-09-12T18:29:10.931Z,19.90
2022-09-12T18:31:39.248Z,19.90
2022-09-12T18:34:12.669Z,19.70
2022-09-12T18:36:41.476Z,19.70
2022-09-12T18:39:09.737Z,19.40
2022-09-12T18:41:37.987Z,19.30
2022-09-12T18:44:06.371Z,19.20
2022-09-12T18:46:35.814Z,19.20
2022-09-12T18:49:04.719Z,19.10
2022-09-12T18:51:36.328Z,19.00
2022-09-12T18:54:07.283Z,18.90
2022-09-12T18:56:38.424Z,18.80
2022-09-12T18:59:08.442Z,18.90
2022-09-12T19:01:38.372Z,18.90
2022-09-12T19:04:07.695Z,19.00
2022-09-12T19:06:38.867Z,19.00
2022-09-12T19:09:09.020Z,18.90
2022-09-12T19:11:39.255Z,18.90
2022-09-12T19:14:08.502Z,18.80
2022-09-12T19:16:37.054Z,18.50
2022-09-12T19:19:06.134Z,18.30
2022-09-12T19:21:37.528Z,18.10
2022-09-12T19:24:07.366Z,18.00
2022-09-12T19:26:35.813Z,18.00
2022-09-12T19:29:04.392Z,18.10
2022-09-12T19:31:33.648Z,18.40
2022-09-12T19:34:02.480Z,18.40
2022-09-12T19:36:44.958Z,18.60
2022-09-12T19:39:16.472Z,18.30
2022-09-12T19:41:44.797Z,18.00
2022-09-12T19:44:12.845Z,17.90
2022-09-12T19:46:41.584Z,17.90
2022-09-12T19:49:11.695Z,18.00
2022-09-12T19:51:40.087Z,18.00
2022-09-12T19:54:08.368Z,18.00
2022-09-12T19:56:38.391Z,17.70
2022-09-12T19:59:06.472Z,17.60
2022-09-12T20:01:36.939Z,17.60
2022-09-12T20:04:05.538Z,17.50
2022-09-12T20:06:33.741Z,17.50
2022-09-12T20:09:01.812Z,17.40
2022-09-12T20:11:30.035Z,17.60
2022-09-12T20:13:59.413Z,17.60
2022-09-12T20:16:30.076Z,17.50
2022-09-12T20:19:00.328Z,17.20
2022-09-12T20:21:32.930Z,17.00
2022-09-12T20:24:02.341Z,16.90
2022-09-12T20:26:30.709Z,17.00
2022-09-12T20:29:00.784Z,17.20
2022-09-12T20:31:30.319Z,17.20
2022-09-12T20:33:59.054Z,17.10
2022-09-12T20:36:27.776Z,17.10
2022-09-12T20:38:57.975Z,17.00
2022-09-12T20:41:27.680Z,16.90
2022-09-12T20:43:57.261Z,17.10
2022-09-12T20:46:28.453Z,17.30
2022-09-12T20:48:56.600Z,17.30
2022-09-12T20:51:26.572Z,17.30
2022-09-12T20:53:55.517Z,17.40
2022-09-12T20:56:24.676Z,17.20
2022-09-12T20:58:52.762Z,16.80
2022-09-12T21:01:21.522Z,16.60
2022-09-12T21:03:51.191Z,16.60
2022-09-12T21:06:20.140Z,16.60
2022-09-12T21:08:49.060Z,16.60
2022-09-12T21:11:18.848Z,16.90
2022-09-12T21:13:47.045Z,16.90
2022-09-12T21:16:16.844Z,16.50
2022-09-12T21:18:45.642Z,16.40
2022-09-12T21:21:16.788Z,16.30
2022-09-12T21:23:45.048Z,16.40
2022-09-12T21:26:13.205Z,16.50
2022-09-12T21:28:41.355Z,16.60
2022-09-12T21:31:09.690Z,16.90
2022-09-12T21:33:37.825Z,17.20
2022-09-12T21:36:06.799Z,17.20
2022-09-12T21:38:36.344Z,17.40
2022-09-12T21:41:09.360Z,17.50
2022-09-12T21:43:37.839Z,17.50
2022-09-12T21:46:07.260Z,17.40
2022-09-12T21:48:36.147Z,17.30
2022-09-12T21:51:05.003Z,17.50
2022-09-12T21:53:33.162Z,17.60
2022-09-12T21:56:08.043Z,17.90
2022-09-12T21:58:36.995Z,18.30
2022-09-12T22:01:06.138Z,18.50
2022-09-12T22:03:34.343Z,18.40
2022-09-12T22:06:04.220Z,18.60
2022-09-12T22:08:34.031Z,18.80
2022-09-12T22:11:05.051Z,18.60
2022-09-12T22:13:34.476Z,18.10
2022-09-12T22:16:03.470Z,17.80
2022-09-12T22:18:34.177Z,17.70
2022-09-12T22:21:04.355Z,18.10
2022-09-12T22:23:49.833Z,18.30
2022-09-12T22:26:18.411Z,18.10
2022-09-12T22:28:48.193Z,18.10
2022-09-12T22:31:16.834Z,17.70
2022-09-12T22:33:45.710Z,17.60
2022-09-12T22:36:13.869Z,17.70
2022-09-12T22:38:42.027Z,17.80
2022-09-12T22:41:12.102Z,17.70
2022-09-12T22:43:40.080Z,17.70
2022-09-12T22:46:12.467Z,18.00
2022-09-12T22:48:41.185Z,18.20
2022-09-12T22:51:09.848Z,18.20
2022-09-12T22:53:38.047Z,18.10
2022-09-12T22:56:07.351Z,18.20
2022-09-12T22:58:37.265Z,18.10
2022-09-12T23:01:06.089Z,18.20
2022-09-12T23:03:36.546Z,18.10
2022-09-12T23:06:04.901Z,18.10
2022-09-12T23:08:34.526Z,17.50
2022-09-12T23:11:03.495Z,17.50
2022-09-12T23:13:32.162Z,17.70
2022-09-12T23:16:00.954Z,17.80
2022-09-12T23:18:29.558Z,17.90
2022-09-12T23:21:00.484Z,18.10
2022-09-12T23:23:28.744Z,18.10
2022-09-12T23:26:04.596Z,18.10
2022-09-12T23:28:32.790Z,18.00
2022-09-12T23:31:01.023Z,18.00
2022-09-12T23:33:29.451Z,18.10
2022-09-12T23:36:03.125Z,18.10
2022-09-12T23:38:33.306Z,17.70
2022-09-12T23:41:01.838Z,17.70
2022-09-12T23:43:30.859Z,18.00
2022-09-12T23:45:59.280Z,18.30
2022-09-12T23:48:27.929Z,18.40
2022-09-12T23:50:56.196Z,18.50
2022-09-12T23:53:26.225Z,18.40
2022-09-12T23:55:54.723Z,18.20
2022-09-12T23:58:23.261Z,17.80
